sensor_id;sensor_type;location;lat;lon;timestamp;pressure;altitude;pressure_sealevel;temperature
48003;BMP280;33768;48.578;11.574;2024-03-23T00:56:08;95837.69;;;9.68
48003;BMP280;33768;48.578;11.574;2024-03-23T00:59:12;95837.88;;;9.70
48003;BMP280;33768;48.578;11.574;2024-03-23T01:02:18;95836.09;;;9.73
48003;BMP280;33768;48.578;11.574;2024-03-23T01:05:22;95820.06;;;9.69
48003;BMP280;33768;48.578;11.574;2024-03-23T01:08:26;95828.09;;;9.75
48003;BMP280;33768;48.578;11.574;2024-03-23T01:11:30;95823.19;;;9.73
48003;BMP280;33768;48.578;11.574;2024-03-23T01:14:34;95814.16;;;9.78
48003;BMP280;33768;48.578;11.574;2024-03-23T01:17:40;95807.41;;;9.79
48003;BMP280;33768;48.578;11.574;2024-03-23T01:20:44;95802.69;;;9.80
48003;BMP280;33768;48.578;11.574;2024-03-23T01:23:55;95800.31;;;9.76
48003;BMP280;33768;48.578;11.574;2024-03-23T01:28:02;95795.22;;;9.73
48003;BMP280;33768;48.578;11.574;2024-03-23T01:32:08;95794.47;;;9.72
48003;BMP280;33768;48.578;11.574;2024-03-23T01:35:38;95788.28;;;9.72
48003;BMP280;33768;48.578;11.574;2024-03-23T01:39:06;95783.97;;;9.76
48003;BMP280;33768;48.578;11.574;2024-03-23T01:43:04;95782.75;;;9.85
48003;BMP280;33768;48.578;11.574;2024-03-23T01:46:08;95781.66;;;9.80
48003;BMP280;33768;48.578;11.574;2024-03-23T01:49:13;95780.84;;;9.72
48003;BMP280;33768;48.578;11.574;2024-03-23T01:52:17;95773.16;;;9.64
48003;BMP280;33768;48.578;11.574;2024-03-23T01:55:21;95768.72;;;9.53
48003;BMP280;33768;48.578;11.574;2024-03-23T01:58:26;95767.72;;;9.43
48003;BMP280;33768;48.578;11.574;2024-03-23T02:01:30;95767.66;;;9.36
48003;BMP280;33768;48.578;11.574;2024-03-23T02:04:35;95766.13;;;9.28
48003;BMP280;33768;48.578;11.574;2024-03-23T02:07:40;95759.91;;;9.20
48003;BMP280;33768;48.578;11.574;2024-03-23T02:10:45;95750.91;;;9.12
48003;BMP280;33768;48.578;11.574;2024-03-23T02:13:49;95748.13;;;9.04
48003;BMP280;33768;48.578;11.574;2024-03-23T02:16:53;95750.03;;;8.97
48003;BMP280;33768;48.578;11.574;2024-03-23T02:19:58;95735.13;;;8.90
48003;BMP280;33768;48.578;11.574;2024-03-23T02:23:03;95729.66;;;8.90
48003;BMP280;33768;48.578;11.574;2024-03-23T02:26:09;95721.16;;;8.94
48003;BMP280;33768;48.578;11.574;2024-03-23T02:29:14;95724.16;;;9.03
48003;BMP280;33768;48.578;11.574;2024-03-23T02:32:18;95720.44;;;9.13
48003;BMP280;33768;48.578;11.574;2024-03-23T02:35:22;95711.00;;;9.14
48003;BMP280;33768;48.578;11.574;2024-03-23T02:38:30;95715.00;;;9.13
48003;BMP280;33768;48.578;11.574;2024-03-23T02:42:17;95716.78;;;9.11
48003;BMP280;33768;48.578;11.574;2024-03-23T02:45:25;95707.34;;;9.12
48003;BMP280;33768;48.578;11.574;2024-03-23T02:48:34;95697.22;;;9.12
48003;BMP280;33768;48.578;11.574;2024-03-23T02:51:43;95700.53;;;9.18
48003;BMP280;33768;48.578;11.574;2024-03-23T02:54:49;95688.91;;;9.18
48003;BMP280;33768;48.578;11.574;2024-03-23T02:57:54;95685.25;;;9.15
48003;BMP280;33768;48.578;11.574;2024-03-23T03:00:59;95681.06;;;9.14
48003;BMP280;33768;48.578;11.574;2024-03-23T03:04:03;95686.56;;;9.22
48003;BMP280;33768;48.578;11.574;2024-03-23T03:07:10;95673.50;;;9.20
48003;BMP280;33768;48.578;11.574;2024-03-23T03:11:00;95683.66;;;9.20
48003;BMP280;33768;48.578;11.574;2024-03-23T03:14:09;95667.50;;;9.22
48003;BMP280;33768;48.578;11.574;2024-03-23T03:17:19;95666.78;;;9.21
48003;BMP280;33768;48.578;11.574;2024-03-23T03:21:06;95657.06;;;9.33
48003;BMP280;33768;48.578;11.574;2024-03-23T03:24:36;95662.38;;;9.38
48003;BMP280;33768;48.578;11.574;2024-03-23T03:27:49;95656.44;;;9.47
48003;BMP280;33768;48.578;11.574;2024-03-23T03:30:59;95652.88;;;9.60
48003;BMP280;33768;48.578;11.574;2024-03-23T03:34:03;95650.44;;;9.76
48003;BMP280;33768;48.578;11.574;2024-03-23T03:37:07;95647.09;;;9.91
48003;BMP280;33768;48.578;11.574;2024-03-23T03:40:12;95631.13;;;10.02
48003;BMP280;33768;48.578;11.574;2024-03-23T03:43:18;95626.84;;;10.21
48003;BMP280;33768;48.578;11.574;2024-03-23T03:46:23;95625.25;;;10.33
48003;BMP280;33768;48.578;11.574;2024-03-23T03:49:27;95620.19;;;10.44
48003;BMP280;33768;48.578;11.574;2024-03-23T03:52:32;95610.22;;;10.54
48003;BMP280;33768;48.578;11.574;2024-03-23T03:55:36;95606.94;;;10.63
48003;BMP280;33768;48.578;11.574;2024-03-23T03:58:40;95596.94;;;10.65
48003;BMP280;33768;48.578;11.574;2024-03-23T04:01:44;95600.75;;;10.70
48003;BMP280;33768;48.578;11.574;2024-03-23T04:04:50;95600.22;;;10.71
48003;BMP280;33768;48.578;11.574;2024-03-23T04:07:55;95601.31;;;10.76
48003;BMP280;33768;48.578;11.574;2024-03-23T04:10:59;95591.88;;;10.77
48003;BMP280;33768;48.578;11.574;2024-03-23T04:14:03;95581.28;;;10.81
48003;BMP280;33768;48.578;11.574;2024-03-23T04:17:07;95568.22;;;10.79
48003;BMP280;33768;48.578;11.574;2024-03-23T04:20:12;95571.47;;;10.78
48003;BMP280;33768;48.578;11.574;2024-03-23T04:23:20;95567.28;;;10.77
48003;BMP280;33768;48.578;11.574;2024-03-23T04:26:25;95566.91;;;10.80
48003;BMP280;33768;48.578;11.574;2024-03-23T04:29:29;95568.22;;;10.87
48003;BMP280;33768;48.578;11.574;2024-03-23T04:32:33;95556.38;;;10.92
48003;BMP280;33768;48.578;11.574;2024-03-23T04:35:37;95554.72;;;11.03
48003;BMP280;33768;48.578;11.574;2024-03-23T04:38:42;95548.19;;;11.06
48003;BMP280;33768;48.578;11.574;2024-03-23T04:41:46;95535.78;;;11.13
48003;BMP280;33768;48.578;11.574;2024-03-23T04:44:51;95552.88;;;11.21
48003;BMP280;33768;48.578;11.574;2024-03-23T04:47:55;95540.31;;;11.25
48003;BMP280;33768;48.578;11.574;2024-03-23T04:50:59;95547.78;;;11.24
48003;BMP280;33768;48.578;11.574;2024-03-23T04:54:04;95525.22;;;11.24
48003;BMP280;33768;48.578;11.574;2024-03-23T04:57:09;95539.78;;;11.26
48003;BMP280;33768;48.578;11.574;2024-03-23T05:00:14;95535.38;;;11.31
48003;BMP280;33768;48.578;11.574;2024-03-23T05:03:26;95517.00;;;11.31
48003;BMP280;33768;48.578;11.574;2024-03-23T05:06:31;95517.16;;;11.33
48003;BMP280;33768;48.578;11.574;2024-03-23T05:09:35;95514.25;;;11.31
48003;BMP280;33768;48.578;11.574;2024-03-23T05:12:39;95509.34;;;11.30
48003;BMP280;33768;48.578;11.574;2024-03-23T05:15:43;95511.88;;;11.28
48003;BMP280;33768;48.578;11.574;2024-03-23T05:18:48;95506.59;;;11.30
48003;BMP280;33768;48.578;11.574;2024-03-23T05:21:52;95501.50;;;11.34
48003;BMP280;33768;48.578;11.574;2024-03-23T05:24:57;95507.50;;;11.32
48003;BMP280;33768;48.578;11.574;2024-03-23T05:28:01;95518.63;;;11.27
48003;BMP280;33768;48.578;11.574;2024-03-23T05:31:06;95520.66;;;11.19
48003;BMP280;33768;48.578;11.574;2024-03-23T05:34:10;95492.09;;;11.13
48003;BMP280;33768;48.578;11.574;2024-03-23T05:37:15;95492.47;;;11.02
48003;BMP280;33768;48.578;11.574;2024-03-23T05:40:19;95493.94;;;10.88
48003;BMP280;33768;48.578;11.574;2024-03-23T05:43:24;95491.06;;;10.71
48003;BMP280;33768;48.578;11.574;2024-03-23T05:46:28;95491.41;;;10.68
48003;BMP280;33768;48.578;11.574;2024-03-23T05:49:32;95487.78;;;10.73
48003;BMP280;33768;48.578;11.574;2024-03-23T05:52:37;95480.16;;;10.71
48003;BMP280;33768;48.578;11.574;2024-03-23T05:55:43;95466.31;;;10.77
48003;BMP280;33768;48.578;11.574;2024-03-23T05:58:47;95448.56;;;11.15
48003;BMP280;33768;48.578;11.574;2024-03-23T06:01:53;95448.28;;;11.50
48003;BMP280;33768;48.578;11.574;2024-03-23T06:04:58;95437.84;;;11.63
48003;BMP280;33768;48.578;11.574;2024-03-23T06:08:02;95423.69;;;11.81
48003;BMP280;33768;48.578;11.574;2024-03-23T06:11:07;95414.47;;;12.01
48003;BMP280;33768;48.578;11.574;2024-03-23T06:14:11;95415.03;;;12.23
48003;BMP280;33768;48.578;11.574;2024-03-23T06:17:16;95409.38;;;12.62
48003;BMP280;33768;48.578;11.574;2024-03-23T06:20:20;95417.09;;;12.56
48003;BMP280;33768;48.578;11.574;2024-03-23T06:23:24;95412.41;;;12.49
48003;BMP280;33768;48.578;11.574;2024-03-23T06:26:29;95396.88;;;12.52
48003;BMP280;33768;48.578;11.574;2024-03-23T06:29:33;95398.34;;;12.53
48003;BMP280;33768;48.578;11.574;2024-03-23T06:32:37;95390.22;;;12.62
48003;BMP280;33768;48.578;11.574;2024-03-23T06:35:42;95388.47;;;12.74
48003;BMP280;33768;48.578;11.574;2024-03-23T06:38:46;95388.44;;;12.98
48003;BMP280;33768;48.578;11.574;2024-03-23T06:41:54;95389.63;;;13.21
48003;BMP280;33768;48.578;11.574;2024-03-23T06:44:59;95385.75;;;13.50
48003;BMP280;33768;48.578;11.574;2024-03-23T06:48:03;95378.84;;;14.02
48003;BMP280;33768;48.578;11.574;2024-03-23T06:51:07;95377.16;;;14.79
48003;BMP280;33768;48.578;11.574;2024-03-23T06:54:13;95369.56;;;15.15
48003;BMP280;33768;48.578;11.574;2024-03-23T06:57:17;95358.13;;;15.18
48003;BMP280;33768;48.578;11.574;2024-03-23T07:00:21;95367.66;;;14.89
48003;BMP280;33768;48.578;11.574;2024-03-23T07:03:26;95360.38;;;14.47
48003;BMP280;33768;48.578;11.574;2024-03-23T07:06:31;95365.75;;;14.09
48003;BMP280;33768;48.578;11.574;2024-03-23T07:09:34;95355.50;;;13.84
48003;BMP280;33768;48.578;11.574;2024-03-23T07:12:39;95365.66;;;13.65
48003;BMP280;33768;48.578;11.574;2024-03-23T07:15:43;95362.56;;;13.51
48003;BMP280;33768;48.578;11.574;2024-03-23T07:18:50;95373.53;;;13.35
48003;BMP280;33768;48.578;11.574;2024-03-23T07:21:54;95372.75;;;13.25
48003;BMP280;33768;48.578;11.574;2024-03-23T07:25:00;95395.69;;;13.03
48003;BMP280;33768;48.578;11.574;2024-03-23T07:28:05;95387.13;;;12.82
48003;BMP280;33768;48.578;11.574;2024-03-23T07:31:11;95407.03;;;12.59
48003;BMP280;33768;48.578;11.574;2024-03-23T07:34:15;95418.94;;;12.37
48003;BMP280;33768;48.578;11.574;2024-03-23T07:37:20;95476.59;;;12.32
48003;BMP280;33768;48.578;11.574;2024-03-23T07:40:24;95491.97;;;11.96
48003;BMP280;33768;48.578;11.574;2024-03-23T07:43:28;95498.25;;;11.21
48003;BMP280;33768;48.578;11.574;2024-03-23T07:46:32;95520.72;;;10.60
48003;BMP280;33768;48.578;11.574;2024-03-23T07:49:37;95548.31;;;10.20
48003;BMP280;33768;48.578;11.574;2024-03-23T07:52:41;95565.13;;;9.89
48003;BMP280;33768;48.578;11.574;2024-03-23T07:56:13;95575.38;;;9.68
48003;BMP280;33768;48.578;11.574;2024-03-23T07:59:18;95575.13;;;9.51
48003;BMP280;33768;48.578;11.574;2024-03-23T08:02:23;95591.22;;;9.42
48003;BMP280;33768;48.578;11.574;2024-03-23T08:05:27;95608.44;;;9.37
48003;BMP280;33768;48.578;11.574;2024-03-23T08:08:41;95610.94;;;9.28
48003;BMP280;33768;48.578;11.574;2024-03-23T08:11:46;95617.41;;;9.17
48003;BMP280;33768;48.578;11.574;2024-03-23T08:14:51;95611.97;;;9.17
48003;BMP280;33768;48.578;11.574;2024-03-23T08:17:56;95608.63;;;9.11
48003;BMP280;33768;48.578;11.574;2024-03-23T08:21:01;95620.59;;;9.08
48003;BMP280;33768;48.578;11.574;2024-03-23T08:24:06;95627.09;;;9.05
48003;BMP280;33768;48.578;11.574;2024-03-23T08:27:10;95641.22;;;9.04
48003;BMP280;33768;48.578;11.574;2024-03-23T08:30:16;95645.28;;;9.10
48003;BMP280;33768;48.578;11.574;2024-03-23T08:33:21;95641.44;;;9.06
48003;BMP280;33768;48.578;11.574;2024-03-23T08:36:25;95651.25;;;9.09
48003;BMP280;33768;48.578;11.574;2024-03-23T08:39:30;95647.66;;;9.14
48003;BMP280;33768;48.578;11.574;2024-03-23T08:42:34;95662.56;;;9.13
48003;BMP280;33768;48.578;11.574;2024-03-23T08:45:39;95676.38;;;9.15
48003;BMP280;33768;48.578;11.574;2024-03-23T08:48:46;95678.25;;;9.27
48003;BMP280;33768;48.578;11.574;2024-03-23T08:51:53;95666.81;;;9.49
48003;BMP280;33768;48.578;11.574;2024-03-23T08:54:58;95675.88;;;9.79
48003;BMP280;33768;48.578;11.574;2024-03-23T08:58:03;95678.09;;;9.88
48003;BMP280;33768;48.578;11.574;2024-03-23T09:01:12;95684.06;;;10.06
48003;BMP280;33768;48.578;11.574;2024-03-23T09:04:20;95682.69;;;10.28
48003;BMP280;33768;48.578;11.574;2024-03-23T09:07:26;95672.81;;;10.17
48003;BMP280;33768;48.578;11.574;2024-03-23T09:10:31;95673.97;;;10.29
48003;BMP280;33768;48.578;11.574;2024-03-23T09:13:36;95675.81;;;10.34
48003;BMP280;33768;48.578;11.574;2024-03-23T09:16:40;95683.75;;;10.25
48003;BMP280;33768;48.578;11.574;2024-03-23T09:19:44;95697.50;;;10.47
48003;BMP280;33768;48.578;11.574;2024-03-23T09:22:49;95691.09;;;11.09
48003;BMP280;33768;48.578;11.574;2024-03-23T09:25:53;95695.44;;;11.04
48003;BMP280;33768;48.578;11.574;2024-03-23T09:28:58;95694.88;;;10.91
48003;BMP280;33768;48.578;11.574;2024-03-23T09:32:03;95700.28;;;10.69
48003;BMP280;33768;48.578;11.574;2024-03-23T09:35:07;95714.09;;;10.56
48003;BMP280;33768;48.578;11.574;2024-03-23T09:38:11;95724.66;;;10.67
48003;BMP280;33768;48.578;11.574;2024-03-23T09:41:16;95723.59;;;10.77
48003;BMP280;33768;48.578;11.574;2024-03-23T09:44:21;95728.78;;;10.53
48003;BMP280;33768;48.578;11.574;2024-03-23T09:47:26;95730.59;;;10.51
48003;BMP280;33768;48.578;11.574;2024-03-23T09:50:30;95727.13;;;10.50
48003;BMP280;33768;48.578;11.574;2024-03-23T09:53:35;95734.63;;;10.57
48003;BMP280;33768;48.578;11.574;2024-03-23T09:56:39;95731.94;;;10.64
48003;BMP280;33768;48.578;11.574;2024-03-23T09:59:43;95730.81;;;10.60
48003;BMP280;33768;48.578;11.574;2024-03-23T10:02:47;95735.34;;;10.58
48003;BMP280;33768;48.578;11.574;2024-03-23T10:06:02;95753.34;;;10.53
48003;BMP280;33768;48.578;11.574;2024-03-23T10:09:16;95766.53;;;10.34
48003;BMP280;33768;48.578;11.574;2024-03-23T10:12:24;95768.41;;;10.12
48003;BMP280;33768;48.578;11.574;2024-03-23T10:15:29;95787.47;;;10.04
48003;BMP280;33768;48.578;11.574;2024-03-23T10:18:37;95787.03;;;9.93
48003;BMP280;33768;48.578;11.574;2024-03-23T10:21:52;95781.59;;;9.93
48003;BMP280;33768;48.578;11.574;2024-03-23T10:25:07;95792.56;;;9.88
48003;BMP280;33768;48.578;11.574;2024-03-23T10:28:12;95806.69;;;9.79
48003;BMP280;33768;48.578;11.574;2024-03-23T10:31:16;95808.44;;;9.49
48003;BMP280;33768;48.578;11.574;2024-03-23T10:34:26;95817.19;;;9.35
48003;BMP280;33768;48.578;11.574;2024-03-23T10:37:31;95816.41;;;9.47
48003;BMP280;33768;48.578;11.574;2024-03-23T10:40:35;95828.16;;;9.82
48003;BMP280;33768;48.578;11.574;2024-03-23T10:43:40;95819.03;;;10.28
48003;BMP280;33768;48.578;11.574;2024-03-23T10:46:44;95819.88;;;10.15
48003;BMP280;33768;48.578;11.574;2024-03-23T10:49:49;95815.94;;;9.96
48003;BMP280;33768;48.578;11.574;2024-03-23T10:52:54;95814.16;;;9.78
48003;BMP280;33768;48.578;11.574;2024-03-23T10:56:00;95827.50;;;9.89
48003;BMP280;33768;48.578;11.574;2024-03-23T10:59:05;95828.69;;;10.01
48003;BMP280;33768;48.578;11.574;2024-03-23T11:02:20;95826.66;;;9.94
48003;BMP280;33768;48.578;11.574;2024-03-23T11:05:28;95832.81;;;9.95
48003;BMP280;33768;48.578;11.574;2024-03-23T11:11:39;95852.63;;;9.95
48003;BMP280;33768;48.578;11.574;2024-03-23T11:14:43;95848.97;;;9.93
48003;BMP280;33768;48.578;11.574;2024-03-23T11:18:07;95862.34;;;9.83
48003;BMP280;33768;48.578;11.574;2024-03-23T11:24:58;95873.34;;;9.91
48003;BMP280;33768;48.578;11.574;2024-03-23T11:28:12;95901.09;;;10.09
48003;BMP280;33768;48.578;11.574;2024-03-23T11:31:16;95913.97;;;10.29
48003;BMP280;33768;48.578;11.574;2024-03-23T11:34:20;95902.44;;;10.43
48003;BMP280;33768;48.578;11.574;2024-03-23T11:37:25;95884.28;;;10.81
48003;BMP280;33768;48.578;11.574;2024-03-23T11:40:32;95886.34;;;10.95
48003;BMP280;33768;48.578;11.574;2024-03-23T11:43:37;95889.69;;;11.08
48003;BMP280;33768;48.578;11.574;2024-03-23T11:46:41;95888.56;;;10.96
48003;BMP280;33768;48.578;11.574;2024-03-23T11:49:48;95894.75;;;10.62
48003;BMP280;33768;48.578;11.574;2024-03-23T11:53:09;95885.72;;;10.47
48003;BMP280;33768;48.578;11.574;2024-03-23T11:56:13;95871.94;;;11.37
48003;BMP280;33768;48.578;11.574;2024-03-23T11:59:31;95850.56;;;12.15
48003;BMP280;33768;48.578;11.574;2024-03-23T12:02:35;95830.84;;;12.23
48003;BMP280;33768;48.578;11.574;2024-03-23T12:05:40;95866.22;;;12.14
48003;BMP280;33768;48.578;11.574;2024-03-23T12:08:45;95885.19;;;11.90
48003;BMP280;33768;48.578;11.574;2024-03-23T12:11:49;95868.38;;;11.64
48003;BMP280;33768;48.578;11.574;2024-03-23T12:15:07;95874.75;;;11.52
48003;BMP280;33768;48.578;11.574;2024-03-23T12:18:12;95885.16;;;11.18
48003;BMP280;33768;48.578;11.574;2024-03-23T12:21:16;95873.75;;;11.27
48003;BMP280;33768;48.578;11.574;2024-03-23T12:24:21;95862.00;;;11.04
48003;BMP280;33768;48.578;11.574;2024-03-23T12:27:25;95863.97;;;10.96
48003;BMP280;33768;48.578;11.574;2024-03-23T12:30:30;95868.84;;;10.91
48003;BMP280;33768;48.578;11.574;2024-03-23T12:33:33;95867.34;;;10.75
48003;BMP280;33768;48.578;11.574;2024-03-23T12:36:38;95871.50;;;10.68
48003;BMP280;33768;48.578;11.574;2024-03-23T12:39:42;95856.66;;;10.49
48003;BMP280;33768;48.578;11.574;2024-03-23T12:42:46;95855.84;;;10.34
48003;BMP280;33768;48.578;11.574;2024-03-23T12:45:51;95845.22;;;10.23
48003;BMP280;33768;48.578;11.574;2024-03-23T12:48:55;95845.28;;;10.10
48003;BMP280;33768;48.578;11.574;2024-03-23T12:51:59;95854.38;;;10.05
48003;BMP280;33768;48.578;11.574;2024-03-23T12:55:04;95857.78;;;10.26
48003;BMP280;33768;48.578;11.574;2024-03-23T12:58:11;95850.53;;;10.29
48003;BMP280;33768;48.578;11.574;2024-03-23T13:01:15;95859.22;;;10.27
48003;BMP280;33768;48.578;11.574;2024-03-23T13:04:19;95863.97;;;10.27
48003;BMP280;33768;48.578;11.574;2024-03-23T13:07:24;95862.50;;;9.98
48003;BMP280;33768;48.578;11.574;2024-03-23T13:10:28;95860.41;;;9.71
48003;BMP280;33768;48.578;11.574;2024-03-23T13:13:32;95871.97;;;9.64
48003;BMP280;33768;48.578;11.574;2024-03-23T13:16:37;95868.16;;;9.47
48003;BMP280;33768;48.578;11.574;2024-03-23T13:19:41;95856.09;;;9.35
48003;BMP280;33768;48.578;11.574;2024-03-23T13:22:45;95861.25;;;9.26
48003;BMP280;33768;48.578;11.574;2024-03-23T13:25:55;95854.44;;;9.19
48003;BMP280;33768;48.578;11.574;2024-03-23T13:28:59;95876.13;;;9.12
48003;BMP280;33768;48.578;11.574;2024-03-23T13:32:03;95877.34;;;8.91
48003;BMP280;33768;48.578;11.574;2024-03-23T13:35:08;95888.06;;;8.50
48003;BMP280;33768;48.578;11.574;2024-03-23T13:38:12;95910.03;;;8.14
48003;BMP280;33768;48.578;11.574;2024-03-23T13:41:16;95930.50;;;7.84
48003;BMP280;33768;48.578;11.574;2024-03-23T13:44:20;95925.72;;;7.59
48003;BMP280;33768;48.578;11.574;2024-03-23T13:47:24;95943.38;;;7.34
48003;BMP280;33768;48.578;11.574;2024-03-23T13:50:29;95936.69;;;6.99
48003;BMP280;33768;48.578;11.574;2024-03-23T13:53:33;95943.56;;;6.82
48003;BMP280;33768;48.578;11.574;2024-03-23T13:56:37;95943.63;;;6.76
48003;BMP280;33768;48.578;11.574;2024-03-23T13:59:41;95935.63;;;6.65
48003;BMP280;33768;48.578;11.574;2024-03-23T14:02:45;95938.34;;;6.65
48003;BMP280;33768;48.578;11.574;2024-03-23T14:05:49;95926.97;;;6.67
48003;BMP280;33768;48.578;11.574;2024-03-23T14:08:54;95924.72;;;6.71
48003;BMP280;33768;48.578;11.574;2024-03-23T14:11:58;95925.88;;;6.75
48003;BMP280;33768;48.578;11.574;2024-03-23T14:15:07;95924.25;;;6.67
48003;BMP280;33768;48.578;11.574;2024-03-23T14:18:11;95908.38;;;6.76
48003;BMP280;33768;48.578;11.574;2024-03-23T14:21:15;95900.81;;;6.87
48003;BMP280;33768;48.578;11.574;2024-03-23T14:24:19;95906.47;;;6.89
48003;BMP280;33768;48.578;11.574;2024-03-23T14:27:24;95900.09;;;6.87
48003;BMP280;33768;48.578;11.574;2024-03-23T14:30:28;95897.16;;;6.85
48003;BMP280;33768;48.578;11.574;2024-03-23T14:33:32;95891.72;;;6.85
48003;BMP280;33768;48.578;11.574;2024-03-23T14:36:37;95882.78;;;6.90
48003;BMP280;33768;48.578;11.574;2024-03-23T14:39:42;95880.44;;;6.99
48003;BMP280;33768;48.578;11.574;2024-03-23T14:42:48;95881.16;;;7.18
48003;BMP280;33768;48.578;11.574;2024-03-23T14:46:12;95869.53;;;7.36
48003;BMP280;33768;48.578;11.574;2024-03-23T14:49:19;95855.06;;;7.46
48003;BMP280;33768;48.578;11.574;2024-03-23T14:52:24;95846.53;;;7.55
48003;BMP280;33768;48.578;11.574;2024-03-23T14:55:28;95849.38;;;7.62
48003;BMP280;33768;48.578;11.574;2024-03-23T14:58:32;95848.25;;;7.83
48003;BMP280;33768;48.578;11.574;2024-03-23T15:01:38;95844.41;;;7.92
48003;BMP280;33768;48.578;11.574;2024-03-23T15:04:42;95852.59;;;8.05
48003;BMP280;33768;48.578;11.574;2024-03-23T15:07:47;95841.13;;;8.12
48003;BMP280;33768;48.578;11.574;2024-03-23T15:10:51;95843.31;;;8.13
48003;BMP280;33768;48.578;11.574;2024-03-23T15:13:55;95845.28;;;8.25
48003;BMP280;33768;48.578;11.574;2024-03-23T15:17:00;95861.81;;;8.40
48003;BMP280;33768;48.578;11.574;2024-03-23T15:20:08;95872.19;;;8.54
48003;BMP280;33768;48.578;11.574;2024-03-23T15:23:15;95885.13;;;8.61
48003;BMP280;33768;48.578;11.574;2024-03-23T15:26:19;95894.75;;;8.62
48003;BMP280;33768;48.578;11.574;2024-03-23T15:29:24;95887.34;;;8.63
48003;BMP280;33768;48.578;11.574;2024-03-23T15:32:28;95892.88;;;8.57
48003;BMP280;33768;48.578;11.574;2024-03-23T15:35:32;95894.00;;;8.62
48003;BMP280;33768;48.578;11.574;2024-03-23T15:38:37;95891.00;;;8.65
48003;BMP280;33768;48.578;11.574;2024-03-23T15:41:46;95878.22;;;8.73
48003;BMP280;33768;48.578;11.574;2024-03-23T15:44:50;95880.91;;;8.86
48003;BMP280;33768;48.578;11.574;2024-03-23T15:47:55;95875.88;;;9.03
48003;BMP280;33768;48.578;11.574;2024-03-23T15:51:00;95861.53;;;9.02
48003;BMP280;33768;48.578;11.574;2024-03-23T15:54:05;95858.91;;;8.97
48003;BMP280;33768;48.578;11.574;2024-03-23T15:57:09;95860.09;;;8.88
48003;BMP280;33768;48.578;11.574;2024-03-23T16:00:13;95860.31;;;8.77
48003;BMP280;33768;48.578;11.574;2024-03-23T16:03:18;95858.00;;;8.81
48003;BMP280;33768;48.578;11.574;2024-03-23T16:06:23;95854.84;;;8.90
48003;BMP280;33768;48.578;11.574;2024-03-23T16:09:27;95842.34;;;9.07
48003;BMP280;33768;48.578;11.574;2024-03-23T16:12:34;95838.44;;;9.16
48003;BMP280;33768;48.578;11.574;2024-03-23T16:15:38;95850.31;;;9.05
48003;BMP280;33768;48.578;11.574;2024-03-23T16:18:43;95845.84;;;8.95
48003;BMP280;33768;48.578;11.574;2024-03-23T16:21:48;95846.84;;;8.72
48003;BMP280;33768;48.578;11.574;2024-03-23T16:24:52;95856.56;;;8.68
48003;BMP280;33768;48.578;11.574;2024-03-23T16:27:57;95840.66;;;8.59
48003;BMP280;33768;48.578;11.574;2024-03-23T16:31:06;95836.53;;;8.32
48003;BMP280;33768;48.578;11.574;2024-03-23T16:34:11;95834.41;;;8.12
48003;BMP280;33768;48.578;11.574;2024-03-23T16:37:15;95841.06;;;7.99
48003;BMP280;33768;48.578;11.574;2024-03-23T16:40:20;95850.69;;;8.00
48003;BMP280;33768;48.578;11.574;2024-03-23T16:43:25;95886.13;;;7.94
48003;BMP280;33768;48.578;11.574;2024-03-23T16:46:30;95911.69;;;7.55
48003;BMP280;33768;48.578;11.574;2024-03-23T16:49:34;95928.69;;;6.88
48003;BMP280;33768;48.578;11.574;2024-03-23T16:52:38;95940.88;;;6.34
48003;BMP280;33768;48.578;11.574;2024-03-23T16:55:43;95940.50;;;5.96
48003;BMP280;33768;48.578;11.574;2024-03-23T16:58:47;95948.56;;;5.78
48003;BMP280;33768;48.578;11.574;2024-03-23T17:01:53;95943.22;;;5.67
48003;BMP280;33768;48.578;11.574;2024-03-23T17:04:57;95956.28;;;5.63
48003;BMP280;33768;48.578;11.574;2024-03-23T17:08:01;95969.31;;;5.59
48003;BMP280;33768;48.578;11.574;2024-03-23T17:11:06;95954.56;;;5.60
48003;BMP280;33768;48.578;11.574;2024-03-23T17:14:10;95950.63;;;5.61
48003;BMP280;33768;48.578;11.574;2024-03-23T17:17:16;95951.81;;;5.65
48003;BMP280;33768;48.578;11.574;2024-03-23T17:20:20;95952.34;;;5.59
48003;BMP280;33768;48.578;11.574;2024-03-23T17:23:28;95958.13;;;5.44
48003;BMP280;33768;48.578;11.574;2024-03-23T17:26:32;95959.38;;;5.38
48003;BMP280;33768;48.578;11.574;2024-03-23T17:29:36;95954.75;;;5.33
48003;BMP280;33768;48.578;11.574;2024-03-23T17:32:42;95952.72;;;5.39
48003;BMP280;33768;48.578;11.574;2024-03-23T17:35:46;95948.81;;;5.40
48003;BMP280;33768;48.578;11.574;2024-03-23T17:38:50;95948.53;;;5.43
48003;BMP280;33768;48.578;11.574;2024-03-23T17:41:55;95958.38;;;5.41
48003;BMP280;33768;48.578;11.574;2024-03-23T17:44:59;95959.44;;;5.32
48003;BMP280;33768;48.578;11.574;2024-03-23T17:48:04;95967.28;;;5.36
48003;BMP280;33768;48.578;11.574;2024-03-23T17:51:08;95952.81;;;5.28
48003;BMP280;33768;48.578;11.574;2024-03-23T17:54:13;95960.69;;;5.26
48003;BMP280;33768;48.578;11.574;2024-03-23T17:57:17;95979.41;;;5.24
48003;BMP280;33768;48.578;11.574;2024-03-23T18:00:21;95973.97;;;5.29
48003;BMP280;33768;48.578;11.574;2024-03-23T18:03:25;95970.50;;;5.34
48003;BMP280;33768;48.578;11.574;2024-03-23T18:06:29;95977.09;;;5.39
48003;BMP280;33768;48.578;11.574;2024-03-23T18:09:33;95983.03;;;5.37
48003;BMP280;33768;48.578;11.574;2024-03-23T18:12:38;95980.06;;;5.35
48003;BMP280;33768;48.578;11.574;2024-03-23T18:15:42;95984.75;;;5.35
48003;BMP280;33768;48.578;11.574;2024-03-23T18:18:46;95983.78;;;5.32
48003;BMP280;33768;48.578;11.574;2024-03-23T18:21:51;95985.78;;;5.27
48003;BMP280;33768;48.578;11.574;2024-03-23T18:24:55;95989.47;;;5.24
48003;BMP280;33768;48.578;11.574;2024-03-23T18:28:00;95992.69;;;5.22
48003;BMP280;33768;48.578;11.574;2024-03-23T18:31:04;95983.38;;;5.18
48003;BMP280;33768;48.578;11.574;2024-03-23T18:34:09;95984.38;;;5.15
48003;BMP280;33768;48.578;11.574;2024-03-23T18:37:15;95981.16;;;5.16
48003;BMP280;33768;48.578;11.574;2024-03-23T18:40:20;95987.56;;;5.13
48003;BMP280;33768;48.578;11.574;2024-03-23T18:43:24;95973.34;;;5.07
48003;BMP280;33768;48.578;11.574;2024-03-23T18:46:31;95979.47;;;5.08
48003;BMP280;33768;48.578;11.574;2024-03-23T18:49:35;95984.44;;;5.04